Lauderhill, Florida
Current Conditions -  °F | °C
As of 3:53 PM on Thursday 23 Oct 2014 (Local Time) from KFXE Reporting Station
Light Rain Light Rain  
Wind Chill: 75°   Ceiling: 2200
Heat Index: 75°   Visibility: 5mi
Dew Point: 70°   Wind: 7mph
Humidity: 84%   Direction: 40°NE
Pressure: 29.88"   Gusts: NA
Location:  26.2125°N, 80.2701°W
Report Text: KFXE 231953Z 04006KT 5SM -RA OVC022 24/21 A2988 RMK AO2 SLP121 P0001 T02390211
Loading
Personal Weather Stations






























Interactive Weather Map
Tropical Storm Tracking
New forecast layout! Learn more

10-Day Weather Forecast

Advertisements
Track Severe Weather on mobile